sensor_id;sensor_type;location;lat;lon;timestamp;P1;durP1;ratioP1;P2;durP2;ratioP2
49139;SDS011;34959;49.310;8.646;2022-12-18T00:01:26;9.70;;;6.85;;
49139;SDS011;34959;49.310;8.646;2022-12-18T00:03:56;9.32;;;7.05;;
49139;SDS011;34959;49.310;8.646;2022-12-18T00:06:22;8.90;;;6.75;;
49139;SDS011;34959;49.310;8.646;2022-12-18T00:08:48;10.65;;;7.05;;
49139;SDS011;34959;49.310;8.646;2022-12-18T00:11:15;8.48;;;6.60;;
49139;SDS011;34959;49.310;8.646;2022-12-18T00:13:44;8.43;;;6.63;;
49139;SDS011;34959;49.310;8.646;2022-12-18T00:16:11;9.05;;;7.22;;
49139;SDS011;34959;49.310;8.646;2022-12-18T00:18:38;8.55;;;6.68;;
49139;SDS011;34959;49.310;8.646;2022-12-18T00:21:05;8.77;;;6.82;;
49139;SDS011;34959;49.310;8.646;2022-12-18T00:23:31;9.32;;;7.50;;
49139;SDS011;34959;49.310;8.646;2022-12-18T00:26:04;10.25;;;7.32;;
49139;SDS011;34959;49.310;8.646;2022-12-18T00:28:31;10.23;;;7.22;;
49139;SDS011;34959;49.310;8.646;2022-12-18T00:31:04;9.63;;;7.13;;
49139;SDS011;34959;49.310;8.646;2022-12-18T00:33:31;9.55;;;7.10;;
49139;SDS011;34959;49.310;8.646;2022-12-18T00:36:00;9.93;;;7.30;;
49139;SDS011;34959;49.310;8.646;2022-12-18T00:38:29;9.43;;;6.70;;
49139;SDS011;34959;49.310;8.646;2022-12-18T00:40:54;8.15;;;6.78;;
49139;SDS011;34959;49.310;8.646;2022-12-18T00:43:20;8.98;;;7.03;;
49139;SDS011;34959;49.310;8.646;2022-12-18T00:45:45;8.85;;;7.22;;
49139;SDS011;34959;49.310;8.646;2022-12-18T00:48:10;9.75;;;7.30;;
49139;SDS011;34959;49.310;8.646;2022-12-18T00:50:36;8.38;;;6.68;;
49139;SDS011;34959;49.310;8.646;2022-12-18T00:53:01;10.38;;;6.82;;
49139;SDS011;34959;49.310;8.646;2022-12-18T00:55:27;9.90;;;7.47;;
49139;SDS011;34959;49.310;8.646;2022-12-18T00:57:52;9.57;;;6.85;;
49139;SDS011;34959;49.310;8.646;2022-12-18T01:00:18;8.90;;;7.10;;
49139;SDS011;34959;49.310;8.646;2022-12-18T01:02:43;9.30;;;7.15;;
49139;SDS011;34959;49.310;8.646;2022-12-18T01:05:10;10.10;;;7.03;;
49139;SDS011;34959;49.310;8.646;2022-12-18T01:07:36;8.82;;;7.07;;
49139;SDS011;34959;49.310;8.646;2022-12-18T01:10:02;9.18;;;7.05;;
49139;SDS011;34959;49.310;8.646;2022-12-18T01:12:29;9.88;;;7.47;;
49139;SDS011;34959;49.310;8.646;2022-12-18T01:14:54;9.32;;;6.90;;
49139;SDS011;34959;49.310;8.646;2022-12-18T01:17:19;10.13;;;7.20;;
49139;SDS011;34959;49.310;8.646;2022-12-18T01:19:45;9.45;;;7.03;;
49139;SDS011;34959;49.310;8.646;2022-12-18T01:22:10;9.95;;;6.85;;
49139;SDS011;34959;49.310;8.646;2022-12-18T01:24:36;10.82;;;7.90;;
49139;SDS011;34959;49.310;8.646;2022-12-18T01:27:01;10.60;;;7.13;;
49139;SDS011;34959;49.310;8.646;2022-12-18T01:29:26;9.23;;;6.93;;
49139;SDS011;34959;49.310;8.646;2022-12-18T01:31:54;10.20;;;7.15;;
49139;SDS011;34959;49.310;8.646;2022-12-18T01:34:20;9.40;;;7.07;;
49139;SDS011;34959;49.310;8.646;2022-12-18T01:36:45;9.60;;;7.20;;
49139;SDS011;34959;49.310;8.646;2022-12-18T01:39:11;9.65;;;6.53;;
49139;SDS011;34959;49.310;8.646;2022-12-18T01:41:38;8.55;;;6.78;;
49139;SDS011;34959;49.310;8.646;2022-12-18T01:49:53;9.65;;;6.82;;
49139;SDS011;34959;49.310;8.646;2022-12-18T01:52:19;8.82;;;6.63;;
49139;SDS011;34959;49.310;8.646;2022-12-18T01:54:46;9.13;;;6.80;;
49139;SDS011;34959;49.310;8.646;2022-12-18T01:57:12;8.63;;;6.78;;
49139;SDS011;34959;49.310;8.646;2022-12-18T01:59:38;8.25;;;6.60;;
49139;SDS011;34959;49.310;8.646;2022-12-18T02:02:04;10.15;;;7.22;;
49139;SDS011;34959;49.310;8.646;2022-12-18T02:04:31;10.50;;;6.95;;
49139;SDS011;34959;49.310;8.646;2022-12-18T02:07:02;9.93;;;6.97;;
49139;SDS011;34959;49.310;8.646;2022-12-18T02:09:50;9.88;;;7.15;;
49139;SDS011;34959;49.310;8.646;2022-12-18T02:12:20;10.00;;;7.15;;
49139;SDS011;34959;49.310;8.646;2022-12-18T02:14:55;9.75;;;7.63;;
49139;SDS011;34959;49.310;8.646;2022-12-18T02:17:24;8.80;;;6.90;;
49139;SDS011;34959;49.310;8.646;2022-12-18T02:28:24;10.07;;;7.03;;
49139;SDS011;34959;49.310;8.646;2022-12-18T02:30:51;10.15;;;7.57;;
49139;SDS011;34959;49.310;8.646;2022-12-18T02:33:18;11.18;;;8.25;;
49139;SDS011;34959;49.310;8.646;2022-12-18T02:35:44;9.88;;;7.45;;
49139;SDS011;34959;49.310;8.646;2022-12-18T02:38:10;9.57;;;7.22;;
49139;SDS011;34959;49.310;8.646;2022-12-18T02:40:37;9.02;;;7.13;;
49139;SDS011;34959;49.310;8.646;2022-12-18T02:43:07;9.55;;;7.03;;
49139;SDS011;34959;49.310;8.646;2022-12-18T02:45:34;10.23;;;6.85;;
49139;SDS011;34959;49.310;8.646;2022-12-18T02:47:59;10.00;;;8.07;;
49139;SDS011;34959;49.310;8.646;2022-12-18T02:56:20;9.63;;;7.68;;
49139;SDS011;34959;49.310;8.646;2022-12-18T02:58:54;9.30;;;7.22;;
49139;SDS011;34959;49.310;8.646;2022-12-18T03:01:32;9.95;;;7.22;;
49139;SDS011;34959;49.310;8.646;2022-12-18T03:04:43;9.80;;;7.18;;
49139;SDS011;34959;49.310;8.646;2022-12-18T03:07:11;9.77;;;6.88;;
49139;SDS011;34959;49.310;8.646;2022-12-18T03:09:42;10.25;;;7.05;;
49139;SDS011;34959;49.310;8.646;2022-12-18T03:15:10;9.13;;;7.43;;
49139;SDS011;34959;49.310;8.646;2022-12-18T03:17:35;10.70;;;7.63;;
49139;SDS011;34959;49.310;8.646;2022-12-18T03:20:04;9.35;;;6.85;;
49139;SDS011;34959;49.310;8.646;2022-12-18T03:22:33;9.65;;;7.13;;
49139;SDS011;34959;49.310;8.646;2022-12-18T03:24:59;10.52;;;7.60;;
49139;SDS011;34959;49.310;8.646;2022-12-18T03:27:26;10.15;;;7.50;;
49139;SDS011;34959;49.310;8.646;2022-12-18T03:30:03;8.43;;;6.57;;
49139;SDS011;34959;49.310;8.646;2022-12-18T03:32:34;9.48;;;6.68;;
49139;SDS011;34959;49.310;8.646;2022-12-18T03:35:13;9.27;;;7.05;;
49139;SDS011;34959;49.310;8.646;2022-12-18T03:37:44;9.50;;;7.35;;
49139;SDS011;34959;49.310;8.646;2022-12-18T03:40:10;9.02;;;7.43;;
49139;SDS011;34959;49.310;8.646;2022-12-18T03:42:59;9.23;;;7.00;;
49139;SDS011;34959;49.310;8.646;2022-12-18T03:45:24;9.40;;;7.43;;
49139;SDS011;34959;49.310;8.646;2022-12-18T03:47:58;10.13;;;7.93;;
49139;SDS011;34959;49.310;8.646;2022-12-18T03:50:37;11.13;;;7.35;;
49139;SDS011;34959;49.310;8.646;2022-12-18T03:55:50;10.15;;;6.93;;
49139;SDS011;34959;49.310;8.646;2022-12-18T03:58:17;10.35;;;7.20;;
49139;SDS011;34959;49.310;8.646;2022-12-18T04:00:46;10.23;;;7.43;;
49139;SDS011;34959;49.310;8.646;2022-12-18T04:03:13;8.95;;;6.90;;
49139;SDS011;34959;49.310;8.646;2022-12-18T04:05:39;9.43;;;7.00;;
49139;SDS011;34959;49.310;8.646;2022-12-18T04:08:06;9.48;;;6.97;;
49139;SDS011;34959;49.310;8.646;2022-12-18T04:10:31;9.73;;;7.53;;
49139;SDS011;34959;49.310;8.646;2022-12-18T04:12:57;9.15;;;7.30;;
49139;SDS011;34959;49.310;8.646;2022-12-18T04:15:23;9.75;;;7.50;;
49139;SDS011;34959;49.310;8.646;2022-12-18T04:17:48;10.07;;;7.43;;
49139;SDS011;34959;49.310;8.646;2022-12-18T04:20:14;10.65;;;7.00;;
49139;SDS011;34959;49.310;8.646;2022-12-18T04:22:39;9.43;;;7.32;;
49139;SDS011;34959;49.310;8.646;2022-12-18T04:25:05;8.80;;;6.68;;
49139;SDS011;34959;49.310;8.646;2022-12-18T04:27:31;10.32;;;7.68;;
49139;SDS011;34959;49.310;8.646;2022-12-18T04:29:56;10.27;;;7.38;;
49139;SDS011;34959;49.310;8.646;2022-12-18T04:32:21;9.60;;;7.32;;
49139;SDS011;34959;49.310;8.646;2022-12-18T04:34:47;8.88;;;6.85;;
49139;SDS011;34959;49.310;8.646;2022-12-18T04:37:12;9.73;;;7.07;;
49139;SDS011;34959;49.310;8.646;2022-12-18T04:39:38;10.63;;;7.25;;
49139;SDS011;34959;49.310;8.646;2022-12-18T04:42:03;9.27;;;7.07;;
49139;SDS011;34959;49.310;8.646;2022-12-18T04:44:29;8.63;;;6.90;;
49139;SDS011;34959;49.310;8.646;2022-12-18T04:46:54;10.68;;;7.40;;
49139;SDS011;34959;49.310;8.646;2022-12-18T04:49:20;9.18;;;6.68;;
49139;SDS011;34959;49.310;8.646;2022-12-18T04:51:46;9.10;;;6.90;;
49139;SDS011;34959;49.310;8.646;2022-12-18T04:54:11;10.85;;;7.50;;
49139;SDS011;34959;49.310;8.646;2022-12-18T04:56:37;10.15;;;6.80;;
49139;SDS011;34959;49.310;8.646;2022-12-18T04:59:02;8.60;;;6.45;;
49139;SDS011;34959;49.310;8.646;2022-12-18T05:01:27;9.25;;;7.30;;
49139;SDS011;34959;49.310;8.646;2022-12-18T05:03:53;9.40;;;6.85;;
49139;SDS011;34959;49.310;8.646;2022-12-18T05:06:18;9.35;;;6.88;;
49139;SDS011;34959;49.310;8.646;2022-12-18T05:08:43;9.95;;;7.68;;
49139;SDS011;34959;49.310;8.646;2022-12-18T05:11:13;8.65;;;6.93;;
49139;SDS011;34959;49.310;8.646;2022-12-18T05:13:43;8.98;;;6.93;;
49139;SDS011;34959;49.310;8.646;2022-12-18T05:16:09;10.93;;;7.38;;
49139;SDS011;34959;49.310;8.646;2022-12-18T05:18:35;10.10;;;7.30;;
49139;SDS011;34959;49.310;8.646;2022-12-18T05:21:01;10.45;;;7.20;;
49139;SDS011;34959;49.310;8.646;2022-12-18T05:23:27;9.38;;;6.97;;
49139;SDS011;34959;49.310;8.646;2022-12-18T05:25:53;10.07;;;7.63;;
49139;SDS011;34959;49.310;8.646;2022-12-18T05:28:20;7.82;;;6.30;;
49139;SDS011;34959;49.310;8.646;2022-12-18T05:30:53;9.60;;;7.38;;
49139;SDS011;34959;49.310;8.646;2022-12-18T05:33:21;10.13;;;7.28;;
49139;SDS011;34959;49.310;8.646;2022-12-18T05:35:52;9.10;;;6.85;;
49139;SDS011;34959;49.310;8.646;2022-12-18T05:38:18;9.98;;;7.20;;
49139;SDS011;34959;49.310;8.646;2022-12-18T05:40:44;9.70;;;7.25;;
49139;SDS011;34959;49.310;8.646;2022-12-18T05:43:10;9.95;;;7.07;;
49139;SDS011;34959;49.310;8.646;2022-12-18T05:45:38;8.55;;;6.63;;
49139;SDS011;34959;49.310;8.646;2022-12-18T05:48:04;10.18;;;7.22;;
49139;SDS011;34959;49.310;8.646;2022-12-18T05:50:30;9.30;;;6.85;;
49139;SDS011;34959;49.310;8.646;2022-12-18T05:52:55;9.40;;;7.15;;
49139;SDS011;34959;49.310;8.646;2022-12-18T05:55:21;9.20;;;7.30;;
49139;SDS011;34959;49.310;8.646;2022-12-18T05:57:46;9.45;;;6.97;;
49139;SDS011;34959;49.310;8.646;2022-12-18T06:00:12;8.63;;;6.80;;
49139;SDS011;34959;49.310;8.646;2022-12-18T06:02:38;9.82;;;6.88;;
49139;SDS011;34959;49.310;8.646;2022-12-18T06:05:03;10.40;;;7.35;;
49139;SDS011;34959;49.310;8.646;2022-12-18T06:07:29;9.30;;;7.35;;
49139;SDS011;34959;49.310;8.646;2022-12-18T06:09:54;10.60;;;7.35;;
49139;SDS011;34959;49.310;8.646;2022-12-18T06:12:20;9.82;;;6.90;;
49139;SDS011;34959;49.310;8.646;2022-12-18T06:14:50;9.15;;;7.05;;
49139;SDS011;34959;49.310;8.646;2022-12-18T06:17:15;10.00;;;7.07;;
49139;SDS011;34959;49.310;8.646;2022-12-18T06:19:40;9.52;;;7.20;;
49139;SDS011;34959;49.310;8.646;2022-12-18T06:22:06;9.25;;;7.15;;
49139;SDS011;34959;49.310;8.646;2022-12-18T06:24:31;8.75;;;7.03;;
49139;SDS011;34959;49.310;8.646;2022-12-18T06:26:58;9.48;;;6.78;;
49139;SDS011;34959;49.310;8.646;2022-12-18T06:29:23;10.82;;;7.30;;
49139;SDS011;34959;49.310;8.646;2022-12-18T06:31:48;8.85;;;6.70;;
49139;SDS011;34959;49.310;8.646;2022-12-18T06:34:14;9.15;;;6.75;;
49139;SDS011;34959;49.310;8.646;2022-12-18T06:36:39;9.75;;;6.85;;
49139;SDS011;34959;49.310;8.646;2022-12-18T06:39:04;9.05;;;6.70;;
49139;SDS011;34959;49.310;8.646;2022-12-18T06:41:30;10.38;;;7.22;;
49139;SDS011;34959;49.310;8.646;2022-12-18T06:43:57;8.77;;;6.63;;
49139;SDS011;34959;49.310;8.646;2022-12-18T06:46:22;8.38;;;6.47;;
49139;SDS011;34959;49.310;8.646;2022-12-18T06:48:49;9.75;;;6.82;;
49139;SDS011;34959;49.310;8.646;2022-12-18T06:51:18;9.88;;;6.88;;
49139;SDS011;34959;49.310;8.646;2022-12-18T06:53:44;8.88;;;6.10;;
49139;SDS011;34959;49.310;8.646;2022-12-18T06:56:10;8.68;;;7.07;;
49139;SDS011;34959;49.310;8.646;2022-12-18T06:58:35;9.00;;;6.82;;
49139;SDS011;34959;49.310;8.646;2022-12-18T07:01:01;9.73;;;6.15;;
49139;SDS011;34959;49.310;8.646;2022-12-18T07:03:28;9.02;;;6.53;;
49139;SDS011;34959;49.310;8.646;2022-12-18T07:05:53;9.48;;;6.78;;
49139;SDS011;34959;49.310;8.646;2022-12-18T07:08:19;9.20;;;6.35;;
49139;SDS011;34959;49.310;8.646;2022-12-18T07:10:44;8.65;;;6.50;;
49139;SDS011;34959;49.310;8.646;2022-12-18T07:13:10;10.45;;;6.70;;
49139;SDS011;34959;49.310;8.646;2022-12-18T07:15:35;8.32;;;6.00;;
49139;SDS011;34959;49.310;8.646;2022-12-18T07:18:01;9.27;;;6.38;;
49139;SDS011;34959;49.310;8.646;2022-12-18T07:20:26;9.40;;;6.55;;
49139;SDS011;34959;49.310;8.646;2022-12-18T07:22:51;8.27;;;6.43;;
49139;SDS011;34959;49.310;8.646;2022-12-18T07:25:17;7.97;;;6.00;;
49139;SDS011;34959;49.310;8.646;2022-12-18T07:27:42;8.38;;;6.10;;
49139;SDS011;34959;49.310;8.646;2022-12-18T07:30:08;8.35;;;6.25;;
49139;SDS011;34959;49.310;8.646;2022-12-18T07:32:34;9.38;;;6.70;;
49139;SDS011;34959;49.310;8.646;2022-12-18T07:34:59;8.07;;;6.22;;
49139;SDS011;34959;49.310;8.646;2022-12-18T07:37:25;8.43;;;6.18;;
49139;SDS011;34959;49.310;8.646;2022-12-18T07:39:50;7.88;;;5.72;;
49139;SDS011;34959;49.310;8.646;2022-12-18T07:42:15;9.50;;;6.50;;
49139;SDS011;34959;49.310;8.646;2022-12-18T07:44:56;8.30;;;6.18;;
49139;SDS011;34959;49.310;8.646;2022-12-18T07:47:22;8.30;;;6.22;;
49139;SDS011;34959;49.310;8.646;2022-12-18T07:49:48;8.65;;;6.50;;
49139;SDS011;34959;49.310;8.646;2022-12-18T07:52:13;8.18;;;6.10;;
49139;SDS011;34959;49.310;8.646;2022-12-18T07:54:39;8.60;;;6.35;;
49139;SDS011;34959;49.310;8.646;2022-12-18T07:57:05;7.82;;;6.35;;
49139;SDS011;34959;49.310;8.646;2022-12-18T07:59:31;8.18;;;6.15;;
49139;SDS011;34959;49.310;8.646;2022-12-18T08:01:56;8.05;;;6.30;;
49139;SDS011;34959;49.310;8.646;2022-12-18T08:04:22;7.43;;;6.07;;
49139;SDS011;34959;49.310;8.646;2022-12-18T08:06:47;7.90;;;5.93;;
49139;SDS011;34959;49.310;8.646;2022-12-18T08:09:12;7.70;;;6.07;;
49139;SDS011;34959;49.310;8.646;2022-12-18T08:11:38;7.75;;;5.93;;
49139;SDS011;34959;49.310;8.646;2022-12-18T08:14:03;8.35;;;6.60;;
49139;SDS011;34959;49.310;8.646;2022-12-18T08:16:29;9.15;;;5.97;;
49139;SDS011;34959;49.310;8.646;2022-12-18T08:18:55;8.38;;;6.68;;
49139;SDS011;34959;49.310;8.646;2022-12-18T08:21:27;7.53;;;5.90;;
49139;SDS011;34959;49.310;8.646;2022-12-18T08:23:55;8.40;;;6.18;;
49139;SDS011;34959;49.310;8.646;2022-12-18T08:26:22;7.82;;;6.15;;
49139;SDS011;34959;49.310;8.646;2022-12-18T08:28:48;7.43;;;5.80;;
49139;SDS011;34959;49.310;8.646;2022-12-18T08:31:14;8.57;;;6.60;;
49139;SDS011;34959;49.310;8.646;2022-12-18T08:33:40;6.82;;;5.45;;
49139;SDS011;34959;49.310;8.646;2022-12-18T08:36:05;7.53;;;5.72;;
49139;SDS011;34959;49.310;8.646;2022-12-18T08:38:31;7.97;;;5.90;;
49139;SDS011;34959;49.310;8.646;2022-12-18T08:41:04;8.52;;;6.50;;
49139;SDS011;34959;49.310;8.646;2022-12-18T08:43:30;7.28;;;5.57;;
49139;SDS011;34959;49.310;8.646;2022-12-18T08:46:15;8.48;;;6.03;;
49139;SDS011;34959;49.310;8.646;2022-12-18T08:48:40;7.60;;;5.93;;
49139;SDS011;34959;49.310;8.646;2022-12-18T08:51:06;7.13;;;5.65;;
49139;SDS011;34959;49.310;8.646;2022-12-18T08:53:31;7.97;;;5.97;;
49139;SDS011;34959;49.310;8.646;2022-12-18T08:55:57;8.05;;;5.82;;
49139;SDS011;34959;49.310;8.646;2022-12-18T08:58:23;8.18;;;5.88;;
49139;SDS011;34959;49.310;8.646;2022-12-18T09:00:48;6.95;;;5.45;;
49139;SDS011;34959;49.310;8.646;2022-12-18T09:03:14;8.25;;;5.50;;
49139;SDS011;34959;49.310;8.646;2022-12-18T09:05:40;8.02;;;6.10;;
49139;SDS011;34959;49.310;8.646;2022-12-18T09:08:06;8.05;;;5.97;;
49139;SDS011;34959;49.310;8.646;2022-12-18T09:10:32;7.53;;;5.82;;
49139;SDS011;34959;49.310;8.646;2022-12-18T09:12:57;7.32;;;5.90;;
49139;SDS011;34959;49.310;8.646;2022-12-18T09:15:23;7.32;;;5.70;;
49139;SDS011;34959;49.310;8.646;2022-12-18T09:17:48;7.85;;;5.68;;
49139;SDS011;34959;49.310;8.646;2022-12-18T09:20:15;7.18;;;5.57;;
49139;SDS011;34959;49.310;8.646;2022-12-18T09:22:41;8.20;;;5.78;;
49139;SDS011;34959;49.310;8.646;2022-12-18T09:25:06;7.30;;;5.70;;
49139;SDS011;34959;49.310;8.646;2022-12-18T09:27:34;6.80;;;5.70;;
49139;SDS011;34959;49.310;8.646;2022-12-18T09:30:00;6.50;;;5.13;;
49139;SDS011;34959;49.310;8.646;2022-12-18T09:32:26;6.72;;;5.13;;
49139;SDS011;34959;49.310;8.646;2022-12-18T09:34:51;7.43;;;5.60;;
49139;SDS011;34959;49.310;8.646;2022-12-18T09:37:17;7.82;;;5.95;;
49139;SDS011;34959;49.310;8.646;2022-12-18T09:39:42;7.18;;;5.75;;
49139;SDS011;34959;49.310;8.646;2022-12-18T09:42:19;7.68;;;5.60;;
49139;SDS011;34959;49.310;8.646;2022-12-18T09:44:48;7.18;;;5.18;;
49139;SDS011;34959;49.310;8.646;2022-12-18T09:47:20;6.53;;;5.50;;
49139;SDS011;34959;49.310;8.646;2022-12-18T09:49:58;7.97;;;5.82;;
49139;SDS011;34959;49.310;8.646;2022-12-18T09:55:04;7.82;;;5.35;;
49139;SDS011;34959;49.310;8.646;2022-12-18T09:57:52;6.82;;;5.32;;
49139;SDS011;34959;49.310;8.646;2022-12-18T10:00:23;6.70;;;5.55;;
49139;SDS011;34959;49.310;8.646;2022-12-18T10:02:50;7.32;;;5.03;;
49139;SDS011;34959;49.310;8.646;2022-12-18T10:08:13;7.30;;;5.68;;
49139;SDS011;34959;49.310;8.646;2022-12-18T10:10:52;7.50;;;5.38;;
49139;SDS011;34959;49.310;8.646;2022-12-18T10:26:41;7.90;;;5.22;;
49139;SDS011;34959;49.310;8.646;2022-12-18T10:29:09;6.90;;;4.95;;
49139;SDS011;34959;49.310;8.646;2022-12-18T10:31:36;6.95;;;5.25;;
49139;SDS011;34959;49.310;8.646;2022-12-18T10:34:01;6.57;;;5.25;;
49139;SDS011;34959;49.310;8.646;2022-12-18T10:36:27;6.72;;;5.10;;
49139;SDS011;34959;49.310;8.646;2022-12-18T10:38:52;7.22;;;5.30;;
49139;SDS011;34959;49.310;8.646;2022-12-18T10:43:44;7.63;;;5.53;;
49139;SDS011;34959;49.310;8.646;2022-12-18T10:51:06;6.35;;;5.05;;
49139;SDS011;34959;49.310;8.646;2022-12-18T10:53:33;5.95;;;5.00;;
49139;SDS011;34959;49.310;8.646;2022-12-18T10:56:03;5.80;;;4.72;;
49139;SDS011;34959;49.310;8.646;2022-12-18T10:58:30;7.72;;;5.60;;
49139;SDS011;34959;49.310;8.646;2022-12-18T11:03:47;6.35;;;5.50;;
49139;SDS011;34959;49.310;8.646;2022-12-18T11:06:25;8.30;;;5.95;;
49139;SDS011;34959;49.310;8.646;2022-12-18T11:08:58;6.35;;;5.40;;
49139;SDS011;34959;49.310;8.646;2022-12-18T11:11:31;6.28;;;5.03;;
49139;SDS011;34959;49.310;8.646;2022-12-18T11:14:05;6.15;;;5.22;;
49139;SDS011;34959;49.310;8.646;2022-12-18T11:16:50;7.60;;;5.30;;
49139;SDS011;34959;49.310;8.646;2022-12-18T11:19:28;6.50;;;5.38;;
49139;SDS011;34959;49.310;8.646;2022-12-18T11:21:55;6.45;;;5.10;;
49139;SDS011;34959;49.310;8.646;2022-12-18T11:24:26;6.75;;;5.20;;
49139;SDS011;34959;49.310;8.646;2022-12-18T11:29:22;6.28;;;4.68;;
49139;SDS011;34959;49.310;8.646;2022-12-18T11:31:49;7.00;;;5.43;;
49139;SDS011;34959;49.310;8.646;2022-12-18T11:36:55;6.55;;;4.90;;
49139;SDS011;34959;49.310;8.646;2022-12-18T11:39:31;6.80;;;5.25;;
49139;SDS011;34959;49.310;8.646;2022-12-18T11:42:13;7.32;;;5.45;;
49139;SDS011;34959;49.310;8.646;2022-12-18T11:44:44;6.45;;;4.85;;
49139;SDS011;34959;49.310;8.646;2022-12-18T11:47:39;8.10;;;6.03;;
49139;SDS011;34959;49.310;8.646;2022-12-18T11:50:30;6.35;;;4.72;;
49139;SDS011;34959;49.310;8.646;2022-12-18T11:52:55;7.95;;;5.13;;
49139;SDS011;34959;49.310;8.646;2022-12-18T12:06:41;6.88;;;5.15;;
49139;SDS011;34959;49.310;8.646;2022-12-18T12:09:44;7.32;;;5.53;;
49139;SDS011;34959;49.310;8.646;2022-12-18T12:20:13;5.70;;;4.38;;
49139;SDS011;34959;49.310;8.646;2022-12-18T12:23:01;6.03;;;4.40;;
49139;SDS011;34959;49.310;8.646;2022-12-18T12:37:11;5.72;;;4.53;;
49139;SDS011;34959;49.310;8.646;2022-12-18T12:39:46;6.50;;;4.68;;
49139;SDS011;34959;49.310;8.646;2022-12-18T12:42:18;6.07;;;4.53;;
49139;SDS011;34959;49.310;8.646;2022-12-18T12:45:17;6.90;;;5.15;;
49139;SDS011;34959;49.310;8.646;2022-12-18T12:47:46;6.55;;;5.20;;
49139;SDS011;34959;49.310;8.646;2022-12-18T12:50:15;6.35;;;4.90;;
49139;SDS011;34959;49.310;8.646;2022-12-18T12:52:42;6.15;;;4.50;;
49139;SDS011;34959;49.310;8.646;2022-12-18T12:55:24;6.13;;;4.72;;
49139;SDS011;34959;49.310;8.646;2022-12-18T12:57:55;6.75;;;5.22;;
49139;SDS011;34959;49.310;8.646;2022-12-18T13:00:25;6.32;;;4.95;;
49139;SDS011;34959;49.310;8.646;2022-12-18T13:05:58;7.00;;;5.13;;
49139;SDS011;34959;49.310;8.646;2022-12-18T13:08:29;4.82;;;4.30;;
49139;SDS011;34959;49.310;8.646;2022-12-18T13:10:59;6.50;;;5.00;;
49139;SDS011;34959;49.310;8.646;2022-12-18T13:13:54;6.53;;;5.32;;
49139;SDS011;34959;49.310;8.646;2022-12-18T13:16:21;6.03;;;5.28;;
49139;SDS011;34959;49.310;8.646;2022-12-18T13:18:51;7.15;;;5.13;;
49139;SDS011;34959;49.310;8.646;2022-12-18T13:23:43;6.38;;;4.80;;
49139;SDS011;34959;49.310;8.646;2022-12-18T13:31:11;7.03;;;5.25;;
49139;SDS011;34959;49.310;8.646;2022-12-18T13:33:38;6.18;;;4.70;;
49139;SDS011;34959;49.310;8.646;2022-12-18T13:38:47;6.68;;;4.85;;
49139;SDS011;34959;49.310;8.646;2022-12-18T13:41:39;7.10;;;5.30;;
49139;SDS011;34959;49.310;8.646;2022-12-18T13:44:25;7.22;;;4.75;;
49139;SDS011;34959;49.310;8.646;2022-12-18T13:47:01;6.78;;;4.97;;
49139;SDS011;34959;49.310;8.646;2022-12-18T13:52:14;6.68;;;5.10;;
49139;SDS011;34959;49.310;8.646;2022-12-18T13:54:43;6.30;;;4.97;;
49139;SDS011;34959;49.310;8.646;2022-12-18T13:59:57;5.70;;;4.45;;
49139;SDS011;34959;49.310;8.646;2022-12-18T14:02:24;5.35;;;4.50;;
49139;SDS011;34959;49.310;8.646;2022-12-18T14:04:51;6.63;;;4.60;;
49139;SDS011;34959;49.310;8.646;2022-12-18T14:07:28;7.03;;;4.88;;
49139;SDS011;34959;49.310;8.646;2022-12-18T14:09:56;5.40;;;4.78;;
49139;SDS011;34959;49.310;8.646;2022-12-18T14:12:33;6.88;;;5.25;;
49139;SDS011;34959;49.310;8.646;2022-12-18T14:17:50;7.43;;;5.18;;
49139;SDS011;34959;49.310;8.646;2022-12-18T14:20:17;6.18;;;4.65;;
49139;SDS011;34959;49.310;8.646;2022-12-18T14:22:46;6.43;;;4.82;;
49139;SDS011;34959;49.310;8.646;2022-12-18T14:27:41;5.43;;;4.55;;
49139;SDS011;34959;49.310;8.646;2022-12-18T14:30:24;6.63;;;4.90;;
49139;SDS011;34959;49.310;8.646;2022-12-18T14:35:32;6.20;;;4.40;;
49139;SDS011;34959;49.310;8.646;2022-12-18T14:40:41;7.38;;;4.72;;
49139;SDS011;34959;49.310;8.646;2022-12-18T14:43:08;6.88;;;4.95;;
49139;SDS011;34959;49.310;8.646;2022-12-18T14:45:36;6.45;;;5.35;;
49139;SDS011;34959;49.310;8.646;2022-12-18T14:48:13;7.07;;;5.15;;
49139;SDS011;34959;49.310;8.646;2022-12-18T14:50:41;5.82;;;4.80;;
49139;SDS011;34959;49.310;8.646;2022-12-18T14:53:18;6.00;;;4.57;;
49139;SDS011;34959;49.310;8.646;2022-12-18T14:55:57;6.28;;;4.65;;
49139;SDS011;34959;49.310;8.646;2022-12-18T14:58:22;6.40;;;5.10;;
49139;SDS011;34959;49.310;8.646;2022-12-18T15:00:48;6.53;;;4.70;;
49139;SDS011;34959;49.310;8.646;2022-12-18T15:03:16;6.47;;;5.13;;
49139;SDS011;34959;49.310;8.646;2022-12-18T15:05:44;6.45;;;5.07;;
49139;SDS011;34959;49.310;8.646;2022-12-18T15:11:02;6.18;;;4.70;;
49139;SDS011;34959;49.310;8.646;2022-12-18T15:13:28;6.43;;;4.50;;
49139;SDS011;34959;49.310;8.646;2022-12-18T15:15:54;5.93;;;4.90;;
49139;SDS011;34959;49.310;8.646;2022-12-18T15:18:23;6.10;;;4.78;;
49139;SDS011;34959;49.310;8.646;2022-12-18T15:21:07;6.60;;;5.13;;
49139;SDS011;34959;49.310;8.646;2022-12-18T15:23:35;6.32;;;4.75;;
49139;SDS011;34959;49.310;8.646;2022-12-18T15:26:04;6.68;;;5.00;;
49139;SDS011;34959;49.310;8.646;2022-12-18T15:28:33;6.43;;;4.60;;
49139;SDS011;34959;49.310;8.646;2022-12-18T15:31:02;6.28;;;4.82;;
49139;SDS011;34959;49.310;8.646;2022-12-18T15:33:31;6.80;;;4.50;;
49139;SDS011;34959;49.310;8.646;2022-12-18T15:35:59;6.38;;;5.20;;
49139;SDS011;34959;49.310;8.646;2022-12-18T15:38:26;5.47;;;4.43;;
49139;SDS011;34959;49.310;8.646;2022-12-18T15:40:52;6.10;;;5.43;;
49139;SDS011;34959;49.310;8.646;2022-12-18T15:43:20;6.68;;;4.95;;
49139;SDS011;34959;49.310;8.646;2022-12-18T15:46:20;6.38;;;4.65;;
49139;SDS011;34959;49.310;8.646;2022-12-18T15:48:54;6.38;;;5.13;;
49139;SDS011;34959;49.310;8.646;2022-12-18T15:51:24;6.88;;;5.35;;
49139;SDS011;34959;49.310;8.646;2022-12-18T15:53:53;6.25;;;4.82;;
49139;SDS011;34959;49.310;8.646;2022-12-18T15:56:20;7.15;;;5.15;;
49139;SDS011;34959;49.310;8.646;2022-12-18T15:59:04;5.82;;;4.75;;
49139;SDS011;34959;49.310;8.646;2022-12-18T16:01:35;6.82;;;5.10;;
49139;SDS011;34959;49.310;8.646;2022-12-18T16:04:03;7.28;;;4.55;;
49139;SDS011;34959;49.310;8.646;2022-12-18T16:07:02;5.57;;;4.70;;
49139;SDS011;34959;49.310;8.646;2022-12-18T16:09:27;7.65;;;5.00;;
49139;SDS011;34959;49.310;8.646;2022-12-18T16:11:52;6.63;;;5.22;;
49139;SDS011;34959;49.310;8.646;2022-12-18T16:16:44;7.45;;;4.88;;
49139;SDS011;34959;49.310;8.646;2022-12-18T16:19:10;6.50;;;4.88;;
49139;SDS011;34959;49.310;8.646;2022-12-18T16:21:35;6.22;;;4.95;;
49139;SDS011;34959;49.310;8.646;2022-12-18T16:24:01;5.72;;;4.65;;
49139;SDS011;34959;49.310;8.646;2022-12-18T16:26:26;8.32;;;5.88;;
49139;SDS011;34959;49.310;8.646;2022-12-18T16:28:51;6.90;;;4.88;;
49139;SDS011;34959;49.310;8.646;2022-12-18T16:31:18;7.82;;;5.20;;
49139;SDS011;34959;49.310;8.646;2022-12-18T16:33:43;7.10;;;4.90;;
49139;SDS011;34959;49.310;8.646;2022-12-18T16:36:09;5.55;;;4.65;;
49139;SDS011;34959;49.310;8.646;2022-12-18T16:38:34;6.95;;;5.28;;
49139;SDS011;34959;49.310;8.646;2022-12-18T16:41:00;6.88;;;4.88;;
49139;SDS011;34959;49.310;8.646;2022-12-18T16:43:44;6.15;;;5.10;;
49139;SDS011;34959;49.310;8.646;2022-12-18T16:46:09;5.85;;;4.65;;
49139;SDS011;34959;49.310;8.646;2022-12-18T16:48:35;7.90;;;5.22;;
49139;SDS011;34959;49.310;8.646;2022-12-18T16:51:01;6.28;;;4.72;;
49139;SDS011;34959;49.310;8.646;2022-12-18T16:53:28;6.47;;;5.05;;
49139;SDS011;34959;49.310;8.646;2022-12-18T16:55:54;7.10;;;5.20;;
49139;SDS011;34959;49.310;8.646;2022-12-18T16:58:20;6.35;;;5.10;;
49139;SDS011;34959;49.310;8.646;2022-12-18T17:00:45;6.10;;;4.88;;